Flight Track Log - Related Links

Times and Time Zones

All times are in EST time to prevent confusion due to time zone crossing. See the EJA922 flight status page for this flight to view local times or setup timezone preferences in your user account.

Time Position Orientation Groundspeed Altitude Reporting Facility
EST Latitude Longitude Course Direction KTS MPH feet Rate Location/Type
Sun 02:58:00 PM 33.4333 -111.9833 90° East 200 230 2,000  Level Phoenix TRACON
Sun 02:58:55 PM 33.4333 -111.9167 90° East 237 273 5,200 3,443 Climbing Phoenix TRACON
Sun 02:59:55 PM 33.4333 -111.8333 90° East 267 307 8,600 3,300 Climbing Phoenix TRACON
Sun 03:00:55 PM 33.3500 -111.8167 171° South 284 327 11,800 2,400 Climbing Phoenix TRACON
Sun 03:01:55 PM 33.2500 -111.8500 196° South 359 413 13,400 1,720 Climbing Phoenix TRACON
Sun 03:03:18 PM 33.1328 -111.8656 186° South 373 429 15,900 1,862 Climbing Albuquerque Center
Sun 03:04:20 PM 33.0053 -111.8878 188° South 386 444 17,900 1,887 Climbing Albuquerque Center
Sun 03:05:22 PM 32.8969 -111.9042 187° South 393 452 19,800 1,707 Climbing Albuquerque Center
Sun 03:06:23 PM 32.7939 -111.8522 157° South 405 466 21,400 1,415 Climbing Albuquerque Center
Sun 03:07:25 PM 32.6892 -111.7861 152° Southeast 422 486 22,700 1,210 Climbing Albuquerque Center
Sun 03:08:27 PM 32.5822 -111.7208 153° Southeast 430 495 23,900 1,306 Climbing Albuquerque Center
Sun 03:09:29 PM 32.4717 -111.6592 155° Southeast 437 503 25,400 1,306 Climbing Albuquerque Center
Sun 03:10:31 PM 32.3497 -111.6208 165° South 438 504 26,600 1,268 Climbing Albuquerque Center
Sun 03:11:32 PM 32.2114 -111.5706 163° South 445 512 28,000 1,171 Climbing Albuquerque Center
Sun 03:12:34 PM 32.0897 -111.5281 164° South 452 520 29,000 919 Climbing Albuquerque Center
Sun 03:13:36 PM 31.9636 -111.4861 164° South 465 535 29,900 871 Climbing Albuquerque Center
Sun 03:14:38 PM 31.8361 -111.4411 163° South 475 547 30,800 1,210 Climbing Albuquerque Center
Sun 03:15:40 PM 31.7069 -111.3944 163° South 482 555 32,400 1,805 Climbing Albuquerque Center
Sun 03:16:41 PM 31.5742 -111.3511 164° South 473 544 34,500 1,805 Climbing Albuquerque Center
Sun 03:17:43 PM 31.4517 -111.3078 163° South 464 534 36,100 1,548 Climbing Albuquerque Center
Sun 03:19:00 PM 31.2842 -111.2470 165° South  Level FlightAware Approximate
Sun 03:26:00 PM 30.3985 -110.8908 114° Southeast  Level FlightAware Approximate
Sun 03:27:00 PM 30.3430 -110.7440 114° Southeast  Level FlightAware Approximate
Sun 03:28:00 PM 30.2874 -110.5975 114° Southeast  Level FlightAware Approximate
Sun 03:29:00 PM 30.2316 -110.4510 114° Southeast  Level FlightAware Approximate
Sun 03:30:00 PM 30.1757 -110.3048 114° Southeast  Level FlightAware Approximate
Sun 03:31:00 PM 30.1196 -110.1587 114° Southeast  Level FlightAware Approximate
Sun 03:32:00 PM 30.0633 -110.0128 114° Southeast  Level FlightAware Approximate
Sun 03:33:00 PM 30.0069 -109.8670 114° Southeast  Level FlightAware Approximate
Sun 03:34:00 PM 29.9503 -109.7215 114° Southeast  Level FlightAware Approximate
Sun 03:35:00 PM 29.8935 -109.5760 114° Southeast  Level FlightAware Approximate
Sun 03:36:00 PM 29.8366 -109.4308 114° Southeast  Level FlightAware Approximate
Sun 03:37:00 PM 29.7796 -109.2857 114° Southeast  Level FlightAware Approximate
Sun 03:38:00 PM 29.7223 -109.1407 114° Southeast  Level FlightAware Approximate
Sun 03:39:00 PM 29.6650 -108.9960 114° Southeast  Level FlightAware Approximate
Sun 03:40:00 PM 29.6074 -108.8514 115° Southeast  Level FlightAware Approximate
Sun 03:41:00 PM 29.5497 -108.7070 115° Southeast  Level FlightAware Approximate
Sun 03:42:00 PM 29.4919 -108.5627 115° Southeast  Level FlightAware Approximate
Sun 03:43:00 PM 29.4343 -108.4184 114° Southeast  Level FlightAware Approximate
Sun 03:44:00 PM 29.3768 -108.2741 115° Southeast  Level FlightAware Approximate
Sun 03:45:00 PM 29.3191 -108.1300 115° Southeast  Level FlightAware Approximate
Sun 03:46:00 PM 29.2614 -107.9860 115° Southeast  Level FlightAware Approximate
Sun 03:47:00 PM 29.2034 -107.8422 115° Southeast  Level FlightAware Approximate
Sun 03:48:00 PM 29.1453 -107.6986 115° Southeast  Level FlightAware Approximate
Sun 03:49:00 PM 29.0870 -107.5551 115° Southeast  Level FlightAware Approximate
Sun 03:50:00 PM 29.0286 -107.4118 115° Southeast  Level FlightAware Approximate
Sun 03:51:00 PM 28.9701 -107.2686 115° Southeast  Level FlightAware Approximate
Sun 03:52:00 PM 28.9114 -107.1256 115° Southeast  Level FlightAware Approximate
Sun 03:53:00 PM 28.8525 -106.9828 115° Southeast  Level FlightAware Approximate
Sun 03:54:00 PM 28.7935 -106.8401 115° Southeast  Level FlightAware Approximate
Sun 03:55:00 PM 28.7343 -106.6976 115° Southeast  Level FlightAware Approximate
Sun 03:56:00 PM 28.6750 -106.5553 115° Southeast  Level FlightAware Approximate
Sun 03:57:00 PM 28.6156 -106.4131 115° Southeast  Level FlightAware Approximate
Sun 03:58:00 PM 28.5560 -106.2710 116° Southeast  Level FlightAware Approximate
Sun 03:59:00 PM 28.4962 -106.1292 116° Southeast  Level FlightAware Approximate
Sun 04:00:00 PM 28.4363 -105.9875 116° Southeast  Level FlightAware Approximate
Sun 04:01:00 PM 28.3763 -105.8459 116° Southeast  Level FlightAware Approximate
Sun 04:02:00 PM 28.3161 -105.7046 116° Southeast  Level FlightAware Approximate
Sun 04:03:00 PM 28.2557 -105.5633 116° Southeast  Level FlightAware Approximate
Sun 04:04:00 PM 28.1966 -105.4217 109° East  Level FlightAware Approximate
Sun 04:05:00 PM 28.1526 -105.2730 109° East  Level FlightAware Approximate
Sun 04:06:00 PM 28.1084 -105.1245 109° East  Level FlightAware Approximate
Sun 04:07:00 PM 28.0641 -104.9761 109° East  Level FlightAware Approximate
Sun 04:08:00 PM 28.0197 -104.8278 109° East  Level FlightAware Approximate
Sun 04:09:00 PM 27.9750 -104.6796 109° East  Level FlightAware Approximate
Sun 04:10:00 PM 27.9303 -104.5316 109° East  Level FlightAware Approximate
Sun 04:11:00 PM 27.8853 -104.3837 109° East  Level FlightAware Approximate
Sun 04:12:00 PM 27.8402 -104.2359 109° East  Level FlightAware Approximate
Sun 04:13:00 PM 27.7950 -104.0882 109° East  Level FlightAware Approximate
Sun 04:14:00 PM 27.7496 -103.9407 109° East  Level FlightAware Approximate
Sun 04:15:00 PM 27.7040 -103.7932 109° East  Level FlightAware Approximate
Sun 04:16:00 PM 27.6583 -103.6459 109° East  Level FlightAware Approximate
Sun 04:17:00 PM 27.6124 -103.4987 109° East  Level FlightAware Approximate
Sun 04:18:00 PM 27.5664 -103.3517 109° East  Level FlightAware Approximate
Sun 04:19:00 PM 27.5202 -103.2048 109° East  Level FlightAware Approximate
Sun 04:20:00 PM 27.4738 -103.0580 110° East  Level FlightAware Approximate
Sun 04:21:00 PM 27.4273 -102.9113 110° East  Level FlightAware Approximate
Sun 04:22:00 PM 27.3807 -102.7647 110° East  Level FlightAware Approximate
Sun 04:23:00 PM 27.3339 -102.6183 110° East  Level FlightAware Approximate
Sun 04:24:00 PM 27.2869 -102.4720 110° East  Level FlightAware Approximate
Sun 04:25:00 PM 27.2398 -102.3258 110° East  Level FlightAware Approximate
Sun 04:26:00 PM 27.1925 -102.1797 110° East  Level FlightAware Approximate
Sun 04:27:00 PM 27.1443 -102.0341 111° Southeast  Level FlightAware Approximate
Sun 04:28:00 PM 27.0949 -101.8891 111° Southeast  Level FlightAware Approximate
Sun 04:29:00 PM 27.0454 -101.7441 111° Southeast  Level FlightAware Approximate
Sun 04:30:00 PM 26.9957 -101.5993 111° Southeast  Level FlightAware Approximate
Sun 04:31:00 PM 26.9461 -101.4546 110° East  Level FlightAware Approximate
Sun 04:32:00 PM 26.8983 -101.3091 110° East  Level FlightAware Approximate
Sun 04:33:00 PM 26.8503 -101.1638 110° East  Level FlightAware Approximate
Sun 04:34:00 PM 26.8022 -101.0186 110° East  Level FlightAware Approximate
Sun 04:35:00 PM 26.7540 -100.8735 110° East  Level FlightAware Approximate
Sun 04:36:00 PM 26.7056 -100.7285 110° East  Level FlightAware Approximate
Sun 04:37:00 PM 26.6571 -100.5836 111° Southeast  Level FlightAware Approximate
Sun 04:38:00 PM 26.6084 -100.4389 111° Southeast  Level FlightAware Approximate
Sun 04:39:00 PM 26.5596 -100.2943 111° Southeast  Level FlightAware Approximate
Sun 04:40:00 PM 26.5160 -100.1479 106° East  Level FlightAware Approximate
Sun 04:41:00 PM 26.4785 -99.9992 106° East  Level FlightAware Approximate
Sun 04:42:00 PM 26.4408 -99.8507 106° East  Level FlightAware Approximate
Sun 04:43:00 PM 26.4029 -99.7022 106° East  Level FlightAware Approximate
Sun 04:44:00 PM 26.3649 -99.5539 106° East  Level FlightAware Approximate
Sun 04:45:00 PM 26.3267 -99.4056 106° East  Level FlightAware Approximate
Sun 04:46:00 PM 26.2773 -99.2620 108° East  Level FlightAware Approximate
Sun 04:47:00 PM 26.2353 -99.1152 108° East  Level FlightAware Approximate
Sun 04:48:00 PM 26.1931 -98.9684 108° East  Level FlightAware Approximate
Sun 04:49:00 PM 26.1509 -98.8218 108° East  Level FlightAware Approximate
Sun 04:50:00 PM 26.1084 -98.6752 108° East  Level FlightAware Approximate
Sun 04:51:00 PM 26.0659 -98.5288 108° East  Level FlightAware Approximate
Sun 04:52:00 PM 26.0231 -98.3825 108° East  Level FlightAware Approximate
Sun 04:53:00 PM 25.9803 -98.2363 108° East  Level FlightAware Approximate
Sun 04:54:00 PM 25.9373 -98.0902 108° East  Level FlightAware Approximate
Sun 04:55:00 PM 25.8941 -97.9442 108° East  Level FlightAware Approximate
Sun 04:56:00 PM 25.8508 -97.7983 108° East  Level FlightAware Approximate
Sun 04:57:00 PM 25.8073 -97.6525 108° East  Level FlightAware Approximate
Sun 04:58:00 PM 25.7619 -97.5078 121° Southeast  Level FlightAware Approximate
Sun 04:59:00 PM 25.6905 -97.3764 121° Southeast  Level FlightAware Approximate
Sun 05:00:00 PM 25.6190 -97.2452 121° Southeast  Level FlightAware Approximate
Sun 05:01:00 PM 25.5474 -97.1141 121° Southeast  Level FlightAware Approximate
Sun 05:02:00 PM 25.4757 -96.9832 121° Southeast  Level FlightAware Approximate
Sun 05:03:00 PM 25.4042 -96.8521 121° Southeast  Level FlightAware Approximate
Sun 05:04:00 PM 25.3343 -96.7202 120° Southeast  Level FlightAware Approximate
Sun 05:05:00 PM 25.2661 -96.5873 120° Southeast  Level FlightAware Approximate
Sun 05:06:00 PM 25.1977 -96.4545 120° Southeast  Level FlightAware Approximate
Sun 05:07:00 PM 25.1292 -96.3218 120° Southeast  Level FlightAware Approximate
Sun 05:08:00 PM 25.0595 -96.1900 121° Southeast  Level FlightAware Approximate
Sun 05:09:00 PM 24.9876 -96.0597 121° Southeast  Level FlightAware Approximate
Sun 05:10:00 PM 24.9156 -95.9296 121° Southeast  Level FlightAware Approximate
Sun 05:11:00 PM 24.8435 -95.7996 121° Southeast  Level FlightAware Approximate
Sun 05:12:00 PM 24.7713 -95.6697 121° Southeast  Level FlightAware Approximate
Sun 05:13:00 PM 24.6990 -95.5400 122° Southeast  Level FlightAware Approximate
Sun 05:14:00 PM 24.6266 -95.4105 122° Southeast  Level FlightAware Approximate
Sun 05:15:00 PM 24.5540 -95.2811 122° Southeast  Level FlightAware Approximate
Sun 05:16:00 PM 24.4814 -95.1519 122° Southeast  Level FlightAware Approximate
Sun 05:17:00 PM 24.4086 -95.0228 122° Southeast  Level FlightAware Approximate
Sun 05:18:00 PM 24.3358 -94.8938 122° Southeast  Level FlightAware Approximate
Sun 05:19:00 PM 24.2628 -94.7650 122° Southeast  Level FlightAware Approximate
Sun 05:20:00 PM 24.1897 -94.6364 122° Southeast  Level FlightAware Approximate
Sun 05:21:00 PM 24.1242 -94.5034 114° Southeast  Level FlightAware Approximate
Sun 05:22:00 PM 24.0677 -94.3652 114° Southeast  Level FlightAware Approximate
Sun 05:23:00 PM 24.0111 -94.2271 114° Southeast  Level FlightAware Approximate
Sun 05:24:00 PM 23.9590 -94.0870 112° Southeast  Level FlightAware Approximate
Sun 05:25:00 PM 23.9079 -93.9464 112° Southeast  Level FlightAware Approximate
Sun 05:26:00 PM 23.8565 -93.8062 112° Southeast  Level FlightAware Approximate
Sun 05:27:00 PM 23.8039 -93.6664 112° Southeast  Level FlightAware Approximate
Sun 05:28:00 PM 23.7512 -93.5268 112° Southeast  Level FlightAware Approximate
Sun 05:29:00 PM 23.6983 -93.3873 112° Southeast  Level FlightAware Approximate
Sun 05:30:00 PM 23.6454 -93.2479 113° Southeast  Level FlightAware Approximate
Sun 05:31:00 PM 23.5923 -93.1086 113° Southeast  Level FlightAware Approximate
Sun 05:32:00 PM 23.5391 -92.9694 113° Southeast  Level FlightAware Approximate
Sun 05:33:00 PM 23.4857 -92.8303 113° Southeast  Level FlightAware Approximate
Sun 05:34:00 PM 23.4323 -92.6914 113° Southeast  Level FlightAware Approximate
Sun 05:35:00 PM 23.3787 -92.5526 113° Southeast  Level FlightAware Approximate
Sun 05:36:00 PM 23.3250 -92.4138 113° Southeast  Level FlightAware Approximate
Sun 05:37:00 PM 23.2711 -92.2752 113° Southeast  Level FlightAware Approximate
Sun 05:38:00 PM 23.2172 -92.1367 113° Southeast  Level FlightAware Approximate
Sun 05:39:00 PM 23.1631 -91.9983 113° Southeast  Level FlightAware Approximate
Sun 05:40:00 PM 23.1089 -91.8600 113° Southeast  Level FlightAware Approximate
Sun 05:41:00 PM 23.0546 -91.7219 113° Southeast  Level FlightAware Approximate
Sun 05:42:00 PM 23.0002 -91.5838 113° Southeast  Level FlightAware Approximate
Sun 05:43:00 PM 22.9452 -91.4461 113° Southeast  Level FlightAware Approximate
Sun 05:44:00 PM 22.8900 -91.3085 114° Southeast  Level FlightAware Approximate
Sun 05:45:00 PM 22.8347 -91.1710 114° Southeast  Level FlightAware Approximate
Sun 05:46:00 PM 22.7792 -91.0337 114° Southeast  Level FlightAware Approximate
Sun 05:47:00 PM 22.7236 -90.8964 114° Southeast  Level FlightAware Approximate
Sun 05:48:00 PM 22.6680 -90.7593 114° Southeast  Level FlightAware Approximate
Sun 05:49:00 PM 22.6121 -90.6223 114° Southeast  Level FlightAware Approximate
Sun 05:50:00 PM 22.5554 -90.4857 114° Southeast  Level FlightAware Approximate
Sun 05:51:00 PM 22.4987 -90.3493 114° Southeast  Level FlightAware Approximate
Sun 05:52:00 PM 22.4418 -90.2130 114° Southeast  Level FlightAware Approximate
Sun 05:53:00 PM 22.3848 -90.0768 114° Southeast  Level FlightAware Approximate
Sun 05:54:00 PM 22.3277 -89.9407 114° Southeast  Level FlightAware Approximate
Sun 05:55:00 PM 22.2705 -89.8047 114° Southeast  Level FlightAware Approximate
Sun 05:56:00 PM 22.2132 -89.6688 114° Southeast  Level FlightAware Approximate
Sun 05:57:00 PM 22.1558 -89.5330 114° Southeast  Level FlightAware Approximate
Sun 05:58:00 PM 22.0983 -89.3972 115° Southeast  Level FlightAware Approximate
Sun 05:59:00 PM 22.0425 -89.2609 110° East  Level FlightAware Approximate
Sun 06:00:00 PM 21.9912 -89.1226 114° Southeast  Level FlightAware Approximate
Sun 06:01:00 PM 21.9341 -88.9868 114° Southeast  Level FlightAware Approximate
Sun 06:02:00 PM 21.8769 -88.8512 114° Southeast  Level FlightAware Approximate
Sun 06:03:00 PM 21.8195 -88.7157 114° Southeast  Level FlightAware Approximate
Sun 06:04:00 PM 21.7621 -88.5803 115° Southeast  Level FlightAware Approximate
Sun 06:05:00 PM 21.7046 -88.4450 115° Southeast  Level FlightAware Approximate
Sun 06:06:00 PM 21.6469 -88.3098 115° Southeast  Level FlightAware Approximate
Sun 06:07:00 PM 21.5891 -88.1748 115° Southeast  Level FlightAware Approximate
Sun 06:08:00 PM 21.5309 -88.0400 115° Southeast  Level FlightAware Approximate
Sun 06:09:00 PM 21.4725 -87.9053 115° Southeast  Level FlightAware Approximate
Sun 06:10:00 PM 21.4141 -87.7707 115° Southeast  Level FlightAware Approximate
Sun 06:11:00 PM 21.3559 -87.6360 115° Southeast  Level FlightAware Approximate
Sun 06:12:00 PM 21.2981 -87.5013 115° Southeast  Level FlightAware Approximate
Sun 06:13:00 PM 21.2402 -87.3666 115° Southeast  Level FlightAware Approximate
Sun 06:14:00 PM 21.1822 -87.2320 115° Southeast  Level FlightAware Approximate
Sun 06:15:00 PM 21.1241 -87.0975 115° Southeast  Level FlightAware Approximate
Sun 06:16:00 PM 21.0658 -86.9632 115° Southeast  Level FlightAware Approximate
Sun 06:17:00 PM 21.0009 -86.8341 137° Southeast  Level FlightAware Approximate
Sun 06:18:00 PM 20.9002 -86.7326 137° Southeast  Level FlightAware Approximate
Sun 06:19:00 PM 20.7995 -86.6313 137° Southeast  Level FlightAware Approximate
Sun 06:20:00 PM 20.6988 -86.5301 137° Southeast  Level FlightAware Approximate
Sun 06:21:00 PM 20.5979 -86.4290 137° Southeast  Level FlightAware Approximate
Sun 06:22:00 PM 20.4971 -86.3281 137° Southeast  Level FlightAware Approximate
Sun 06:23:00 PM 20.3961 -86.2273 137° Southeast  Level FlightAware Approximate
Sun 06:24:00 PM 20.2951 -86.1267 137° Southeast  Level FlightAware Approximate
Sun 06:25:00 PM 20.1941 -86.0262 137° Southeast  Level FlightAware Approximate
Sun 06:26:00 PM 20.0930 -85.9258 137° Southeast  Level FlightAware Approximate
Sun 06:27:00 PM 19.9918 -85.8255 137° Southeast  Level FlightAware Approximate
Sun 06:28:00 PM 19.8907 -85.7253 137° Southeast  Level FlightAware Approximate
Sun 06:29:00 PM 19.7895 -85.6252 137° Southeast  Level FlightAware Approximate
Sun 06:30:00 PM 19.6882 -85.5252 137° Southeast  Level FlightAware Approximate
Sun 06:31:00 PM 19.5870 -85.4253 137° Southeast  Level FlightAware Approximate
Sun 06:32:00 PM 19.4856 -85.3256 137° Southeast  Level FlightAware Approximate
Sun 06:33:00 PM 19.3842 -85.2260 137° Southeast  Level FlightAware Approximate
Sun 06:34:00 PM 19.2827 -85.1265 137° Southeast  Level FlightAware Approximate
Sun 06:35:00 PM 19.1812 -85.0272 137° Southeast  Level FlightAware Approximate
Sun 06:36:00 PM 19.0796 -84.9279 137° Southeast  Level FlightAware Approximate
Sun 06:37:00 PM 18.9780 -84.8288 137° Southeast  Level FlightAware Approximate
Sun 06:38:00 PM 18.8763 -84.7299 137° Southeast  Level FlightAware Approximate
Sun 06:39:00 PM 18.7746 -84.6310 137° Southeast  Level FlightAware Approximate
Sun 06:40:00 PM 18.6728 -84.5322 137° Southeast  Level FlightAware Approximate
Sun 06:41:00 PM 18.5710 -84.4336 137° Southeast  Level FlightAware Approximate
Sun 06:42:00 PM 18.4691 -84.3351 137° Southeast  Level FlightAware Approximate
Sun 06:43:00 PM 18.3674 -84.2364 137° Southeast  Level FlightAware Approximate
Sun 06:44:00 PM 18.2657 -84.1378 137° Southeast  Level FlightAware Approximate
Sun 06:45:00 PM 18.1640 -84.0393 137° Southeast  Level FlightAware Approximate
Sun 06:46:00 PM 18.0622 -83.9409 137° Southeast  Level FlightAware Approximate
Sun 06:47:00 PM 17.9604 -83.8426 137° Southeast  Level FlightAware Approximate
Sun 06:48:00 PM 17.8585 -83.7444 137° Southeast  Level FlightAware Approximate
Sun 06:49:00 PM 17.7566 -83.6463 137° Southeast  Level FlightAware Approximate
Sun 06:50:00 PM 17.6546 -83.5484 138° Southeast  Level FlightAware Approximate
Sun 06:51:00 PM 17.5526 -83.4505 138° Southeast  Level FlightAware Approximate
Sun 06:52:00 PM 17.4505 -83.3528 138° Southeast  Level FlightAware Approximate
Sun 06:53:00 PM 17.3484 -83.2552 138° Southeast  Level FlightAware Approximate
Sun 06:54:00 PM 17.2462 -83.1577 138° Southeast  Level FlightAware Approximate
Sun 06:55:00 PM 17.1440 -83.0603 138° Southeast  Level FlightAware Approximate
Sun 06:56:00 PM 17.0417 -82.9630 138° Southeast  Level FlightAware Approximate
Sun 06:57:00 PM 16.9394 -82.8658 138° Southeast  Level FlightAware Approximate
Sun 06:58:00 PM 16.8371 -82.7687 138° Southeast  Level FlightAware Approximate
Sun 06:59:00 PM 16.7347 -82.6717 138° Southeast  Level FlightAware Approximate
Sun 07:00:00 PM 16.6322 -82.5749 138° Southeast  Level FlightAware Approximate
Sun 07:01:00 PM 16.5298 -82.4781 138° Southeast  Level FlightAware Approximate
Sun 07:02:00 PM 16.4272 -82.3814 138° Southeast  Level FlightAware Approximate
Sun 07:03:00 PM 16.3246 -82.2848 138° Southeast  Level FlightAware Approximate
Sun 07:04:00 PM 16.2220 -82.1884 138° Southeast  Level FlightAware Approximate
Sun 07:05:00 PM 16.1194 -82.0920 138° Southeast  Level FlightAware Approximate
Sun 07:06:00 PM 16.0167 -81.9957 138° Southeast  Level FlightAware Approximate
Sun 07:07:00 PM 15.9139 -81.8996 138° Southeast  Level FlightAware Approximate
Sun 07:08:00 PM 15.8111 -81.8035 138° Southeast  Level FlightAware Approximate
Sun 07:09:00 PM 15.7083 -81.7075 138° Southeast  Level FlightAware Approximate
Sun 07:10:00 PM 15.6054 -81.6116 138° Southeast  Level FlightAware Approximate
Sun 07:11:00 PM 15.5025 -81.5158 138° Southeast  Level FlightAware Approximate
Sun 07:12:00 PM 15.3996 -81.4202 138° Southeast  Level FlightAware Approximate
Sun 07:13:00 PM 15.2966 -81.3246 138° Southeast  Level FlightAware Approximate
Sun 07:14:00 PM 15.1936 -81.2291 138° Southeast  Level FlightAware Approximate
Sun 07:15:00 PM 15.0905 -81.1337 138° Southeast  Level FlightAware Approximate
Sun 07:16:00 PM 14.9874 -81.0383 138° Southeast  Level FlightAware Approximate
Sun 07:17:00 PM 14.8842 -80.9431 138° Southeast  Level FlightAware Approximate
Sun 07:18:00 PM 14.7810 -80.8480 138° Southeast  Level FlightAware Approximate
Sun 07:19:00 PM 14.6778 -80.7529 138° Southeast  Level FlightAware Approximate
Sun 07:20:00 PM 14.5745 -80.6580 138° Southeast  Level FlightAware Approximate
Sun 07:21:00 PM 14.4712 -80.5631 138° Southeast  Level FlightAware Approximate
Sun 07:22:00 PM 14.3679 -80.4683 138° Southeast  Level FlightAware Approximate
Sun 07:23:00 PM 14.2645 -80.3736 138° Southeast  Level FlightAware Approximate
Sun 07:24:00 PM 14.1611 -80.2790 138° Southeast  Level FlightAware Approximate
Sun 07:25:00 PM 14.0577 -80.1845 138° Southeast  Level FlightAware Approximate
Sun 07:26:00 PM 13.9542 -80.0900 138° Southeast  Level FlightAware Approximate
Sun 07:27:00 PM 13.8507 -79.9957 138° Southeast  Level FlightAware Approximate
Sun 07:28:00 PM 13.7471 -79.9014 139° Southeast  Level FlightAware Approximate
Sun 07:29:00 PM 13.6435 -79.8072 139° Southeast  Level FlightAware Approximate
Sun 07:30:00 PM 13.5399 -79.7131 139° Southeast  Level FlightAware Approximate
Sun 07:31:00 PM 13.4362 -79.6191 139° Southeast  Level FlightAware Approximate
Sun 07:32:00 PM 13.3325 -79.5252 139° Southeast  Level FlightAware Approximate
Sun 07:33:00 PM 13.2288 -79.4313 139° Southeast  Level FlightAware Approximate
Sun 07:34:00 PM 13.1250 -79.3375 139° Southeast  Level FlightAware Approximate
Sun 07:35:00 PM 13.0212 -79.2438 139° Southeast  Level FlightAware Approximate
Sun 07:36:00 PM 12.9173 -79.1502 139° Southeast  Level FlightAware Approximate
Sun 07:37:00 PM 12.8135 -79.0567 139° Southeast  Level FlightAware Approximate
Sun 07:38:00 PM 12.7096 -78.9632 139° Southeast  Level FlightAware Approximate
Sun 07:39:00 PM 12.6056 -78.8698 139° Southeast  Level FlightAware Approximate
Sun 07:40:00 PM 12.5017 -78.7765 139° Southeast  Level FlightAware Approximate
Sun 07:41:00 PM 12.3977 -78.6833 139° Southeast  Level FlightAware Approximate
Sun 07:42:00 PM 12.2936 -78.5901 139° Southeast  Level FlightAware Approximate
Sun 07:43:00 PM 12.1896 -78.4970 139° Southeast  Level FlightAware Approximate
Sun 07:44:00 PM 12.0855 -78.4040 139° Southeast  Level FlightAware Approximate
Sun 07:45:00 PM 11.9813 -78.3110 139° Southeast  Level FlightAware Approximate
Sun 07:46:00 PM 11.8772 -78.2181 139° Southeast  Level FlightAware Approximate
Sun 07:47:00 PM 11.7730 -78.1254 139° Southeast  Level FlightAware Approximate
Sun 07:48:00 PM 11.6688 -78.0326 139° Southeast  Level FlightAware Approximate
Sun 07:49:00 PM 11.5645 -77.9399 139° Southeast  Level FlightAware Approximate
Sun 07:50:00 PM 11.4602 -77.8474 139° Southeast  Level FlightAware Approximate
Sun 07:51:00 PM 11.3559 -77.7548 139° Southeast  Level FlightAware Approximate
Sun 07:52:00 PM 11.2516 -77.6624 139° Southeast  Level FlightAware Approximate
Sun 07:53:00 PM 11.1450 -77.5727 142° Southeast  Level FlightAware Approximate
Sun 07:54:00 PM 11.0363 -77.4857 142° Southeast  Level FlightAware Approximate
Sun 07:55:00 PM 10.9409 -77.3892 109° East  Level FlightAware Approximate
Sun 07:56:00 PM 10.8929 -77.2572 112° Southeast  Level FlightAware Approximate
Sun 07:57:00 PM 10.8440 -77.1258 104° East  Level FlightAware Approximate
Sun 07:58:00 PM 10.7902 -76.9970 117° Southeast  Level FlightAware Approximate
Sun 07:59:00 PM 10.7382 -76.8668 114° Southeast  Level FlightAware Approximate
Sun 08:00:00 PM 10.6829 -76.7378 114° Southeast  Level FlightAware Approximate
Sun 08:01:00 PM 10.6333 -76.6066 110° East  Level FlightAware Approximate
Sun 08:02:00 PM 10.5861 -76.4744 110° East  Level FlightAware Approximate
Sun 08:03:00 PM 10.5360 -76.3434 111° Southeast  Level FlightAware Approximate
Sun 08:04:00 PM 10.4857 -76.2125 111° Southeast  Level FlightAware Approximate
Sun 08:05:00 PM 10.4353 -76.0816 111° Southeast  Level FlightAware Approximate
Sun 08:06:00 PM 10.3807 -75.9525 114° Southeast  Level FlightAware Approximate
Sun 08:07:00 PM 10.3269 -75.8232 111° Southeast  Level FlightAware Approximate
Sun 08:08:00 PM 10.2765 -75.6923 111° Southeast  Level FlightAware Approximate
Sun 08:09:00 PM 10.2310 -75.5597 109° East  Level FlightAware Approximate
Sun 08:10:00 PM 10.2701 -75.5000 North  Level FlightAware Approximate
Sun 08:11:00 PM 10.4083 -75.5000 North  Level FlightAware Approximate
Sun 08:12:00 PM 10.4333 -75.5000 North  Level FlightAware Approximate
Sun 08:13:00 PM 10.4424 -75.5130 North  Level Estimated
Sun 08:14:00 PM 10.4424 -75.5130 North  Level Estimated
Sun 08:15:00 PM 10.4424 -75.5130 North  Level Estimated
Sun 08:16:00 PM 10.4424 -75.5130 North  Level Estimated
Sun 08:17:00 PM 10.4424 -75.5130 North  Level Estimated
Sun 08:18:00 PM 10.4424 -75.5130 North  Level Estimated
Sun 08:19:00 PM 10.4424 -75.5130 North  Level Estimated
Sun 08:20:00 PM 10.4424 -75.5130 North  Level Estimated
Sun 08:21:00 PM 10.4424 -75.5130 North  Level Estimated

Login

Don't have an account? Register now (free) for customized features, flight alerts, and more!